Time;durP1;ratioP1;P1;durP2;ratioP2;P2;SDS_P1;SDS_P2;PMS_P1;PMS_P2;Temp;Humidity;BMP_temperature;BMP_pressure;BME280_temperature;BME280_humidity;BME280_pressure;Samples;Min_cycle;Max_cycle;Signal;HPM_P1;HPM_P2
2024/02/02 00:00:43;;;;;;;12.47;5.77;;;7.00;99.90;;;;;;5053786;28;20489;-57
2024/02/02 00:03:09;;;;;;;21.63;6.50;;;7.00;99.90;;;;;;5053439;28;20450;-57
2024/02/02 00:05:36;;;;;;;19.50;6.50;;;6.90;99.90;;;;;;5053727;28;20467;-57
2024/02/02 00:08:06;;;;;;;21.10;6.10;;;6.90;99.90;;;;;;5053736;28;20532;-57
2024/02/02 00:10:33;;;;;;;23.90;6.40;;;6.90;99.90;;;;;;5053582;28;20438;-57
2024/02/02 00:13:00;;;;;;;21.27;6.13;;;7.00;99.90;;;;;;5053390;28;20453;-57
2024/02/02 00:15:27;;;;;;;15.47;6.97;;;7.00;99.90;;;;;;5053417;28;20892;-57
2024/02/02 00:17:53;;;;;;;25.33;7.50;;;7.00;99.90;;;;;;5053304;28;20441;-57
2024/02/02 00:20:20;;;;;;;19.67;5.77;;;7.00;99.90;;;;;;5052825;28;20517;-57
2024/02/02 00:22:47;;;;;;;12.90;5.90;;;7.00;99.90;;;;;;5053257;28;20540;-57
2024/02/02 00:25:15;;;;;;;22.20;5.07;;;7.00;99.90;;;;;;5053140;28;20473;-56
2024/02/02 00:27:43;;;;;;;19.53;6.57;;;7.00;99.90;;;;;;5052876;28;20967;-56
2024/02/02 00:30:10;;;;;;;17.00;6.10;;;7.00;99.90;;;;;;5053169;28;20442;-56
2024/02/02 00:32:39;;;;;;;27.00;4.90;;;6.90;99.90;;;;;;5053611;28;20452;-57
2024/02/02 00:35:06;;;;;;;26.00;6.40;;;6.90;99.90;;;;;;5057971;28;20556;-57
2024/02/02 00:37:33;;;;;;;28.17;7.00;;;6.90;99.90;;;;;;5057618;28;20451;-56
2024/02/02 00:40:00;;;;;;;26.27;6.47;;;6.90;99.90;;;;;;5057499;28;20469;-56
2024/02/02 00:42:28;;;;;;;25.47;6.83;;;6.90;99.90;;;;;;5057447;28;20448;-56
2024/02/02 00:44:57;;;;;;;14.83;5.87;;;6.90;99.90;;;;;;5057023;28;20555;-56
2024/02/02 00:47:24;;;;;;;22.33;5.67;;;6.90;99.90;;;;;;5056719;28;20519;-56
2024/02/02 00:49:50;;;;;;;23.53;6.20;;;6.90;99.90;;;;;;5057033;28;20444;-56
2024/02/02 00:52:17;;;;;;;13.33;6.23;;;7.00;99.90;;;;;;5056923;28;20836;-57
2024/02/02 00:54:44;;;;;;;21.60;7.30;;;7.00;99.90;;;;;;5056652;28;20545;-57
2024/02/02 00:57:12;;;;;;;17.20;7.20;;;7.00;99.90;;;;;;5057134;28;20479;-56
2024/02/02 00:59:40;;;;;;;24.40;6.40;;;7.10;99.90;;;;;;5057039;28;20454;-56
2024/02/02 01:02:07;;;;;;;14.37;6.53;;;7.00;99.90;;;;;;5056815;28;20477;-57
2024/02/02 01:04:34;;;;;;;18.20;6.30;;;7.10;99.90;;;;;;5057026;28;20467;-57
2024/02/02 01:07:01;;;;;;;14.53;5.87;;;7.10;99.90;;;;;;5056834;28;20445;-56
2024/02/02 01:09:28;;;;;;;20.87;6.97;;;7.10;99.90;;;;;;5056416;28;20906;-56
2024/02/02 01:11:54;;;;;;;25.93;8.50;;;7.10;99.90;;;;;;5056561;28;20437;-56
2024/02/02 01:14:21;;;;;;;20.97;7.97;;;7.10;99.90;;;;;;5056730;28;20523;-56
2024/02/02 01:16:50;;;;;;;17.30;6.20;;;7.10;99.90;;;;;;5056715;28;20495;-56
2024/02/02 01:19:17;;;;;;;20.47;6.80;;;7.10;99.90;;;;;;5056423;28;20452;-56
2024/02/02 01:21:44;;;;;;;24.30;6.47;;;7.10;99.90;;;;;;5056246;28;20480;-56
2024/02/02 01:24:10;;;;;;;16.03;6.40;;;7.10;99.90;;;;;;5056336;28;20843;-56
2024/02/02 01:26:37;;;;;;;16.90;6.47;;;7.10;99.90;;;;;;5056281;28;20442;-56
2024/02/02 01:29:04;;;;;;;22.13;8.33;;;7.10;99.90;;;;;;5056076;28;20532;-56
2024/02/02 01:31:31;;;;;;;24.00;7.53;;;7.00;99.90;;;;;;5056299;28;20437;-56
2024/02/02 01:33:59;;;;;;;19.10;6.83;;;7.00;99.90;;;;;;5055991;28;20518;-56
2024/02/02 01:36:26;;;;;;;20.13;6.87;;;7.00;99.90;;;;;;5055843;28;20950;-56
2024/02/02 01:38:54;;;;;;;17.40;6.87;;;6.90;99.90;;;;;;5056207;28;20449;-56
2024/02/02 01:41:21;;;;;;;18.50;6.30;;;6.90;99.90;;;;;;5055947;28;20839;-56
2024/02/02 01:43:48;;;;;;;20.23;7.47;;;6.90;99.90;;;;;;5055345;28;20453;-57
2024/02/02 01:46:15;;;;;;;21.63;7.37;;;6.90;99.90;;;;;;5054924;28;20970;-56
2024/02/02 01:48:42;;;;;;;21.03;6.83;;;6.90;99.90;;;;;;5056120;28;20452;-56
2024/02/02 01:51:11;;;;;;;23.07;7.00;;;6.90;99.90;;;;;;5055945;28;20433;-56
2024/02/02 01:53:38;;;;;;;23.57;7.23;;;6.90;99.90;;;;;;5055704;28;20465;-56
2024/02/02 01:56:06;;;;;;;19.50;6.63;;;6.90;99.90;;;;;;5055595;28;20470;-56
2024/02/02 01:58:33;;;;;;;20.47;6.27;;;6.90;99.90;;;;;;5055447;28;20985;-56
2024/02/02 02:01:00;;;;;;;21.27;5.90;;;6.90;99.90;;;;;;5055613;28;20487;-56
2024/02/02 02:03:27;;;;;;;23.23;7.77;;;6.90;99.90;;;;;;5055299;28;20528;-56
2024/02/02 02:05:55;;;;;;;25.80;7.63;;;6.90;99.90;;;;;;5055692;28;20472;-57
2024/02/02 02:08:23;;;;;;;16.23;7.13;;;6.90;99.90;;;;;;5055279;28;20936;-56
2024/02/02 02:10:50;;;;;;;19.23;8.13;;;6.90;99.90;;;;;;5055142;28;20438;-56
2024/02/02 02:13:17;;;;;;;23.90;7.90;;;6.90;99.90;;;;;;5055222;28;20445;-56
2024/02/02 02:15:44;;;;;;;23.97;7.30;;;6.90;99.90;;;;;;5055304;28;20609;-56
2024/02/02 02:18:11;;;;;;;23.77;8.10;;;6.80;99.90;;;;;;5055022;28;20495;-55
2024/02/02 02:20:39;;;;;;;24.27;7.30;;;6.90;99.90;;;;;;5055413;28;20477;-56
2024/02/02 02:23:08;;;;;;;21.90;7.67;;;6.80;99.90;;;;;;5056255;28;20841;-55
2024/02/02 02:25:35;;;;;;;19.10;6.40;;;6.90;99.90;;;;;;5055483;28;20453;-56
2024/02/02 02:28:02;;;;;;;17.20;7.67;;;6.90;99.90;;;;;;5055142;28;20943;-56
2024/02/02 02:30:29;;;;;;;21.00;7.00;;;6.80;99.90;;;;;;5055279;28;20441;-56
2024/02/02 02:32:56;;;;;;;30.37;8.13;;;6.80;99.90;;;;;;5055141;28;20448;-56
2024/02/02 02:35:23;;;;;;;20.40;5.93;;;6.80;99.90;;;;;;5054784;28;20841;-56
2024/02/02 02:37:49;;;;;;;20.53;6.07;;;6.90;99.90;;;;;;5055221;28;20438;-55
2024/02/02 02:40:18;;;;;;;23.40;6.90;;;6.80;99.90;;;;;;5054787;28;20452;-55
2024/02/02 02:42:45;;;;;;;21.57;5.90;;;6.90;99.90;;;;;;5054842;28;20537;-55
2024/02/02 02:45:11;;;;;;;26.57;6.40;;;6.90;99.90;;;;;;5054685;28;20899;-56
2024/02/02 02:47:38;;;;;;;19.00;6.30;;;6.80;99.90;;;;;;5054848;28;20442;-55
2024/02/02 02:50:06;;;;;;;21.73;7.17;;;6.90;99.90;;;;;;5054894;28;20446;-56
2024/02/02 02:52:33;;;;;;;15.90;5.30;;;6.90;99.90;;;;;;5054861;28;20485;-56
2024/02/02 02:55:00;;;;;;;21.73;5.87;;;6.90;99.90;;;;;;5054288;28;20464;-55
2024/02/02 02:57:28;;;;;;;25.40;7.13;;;6.90;99.90;;;;;;5054246;28;20821;-55
2024/02/02 02:59:55;;;;;;;20.80;6.63;;;7.00;99.90;;;;;;5054443;28;20442;-54
2024/02/02 03:02:21;;;;;;;18.57;5.40;;;6.90;99.90;;;;;;5054325;28;20490;-55
2024/02/02 03:04:48;;;;;;;18.17;7.30;;;7.00;99.90;;;;;;5054527;28;20469;-55
2024/02/02 03:07:15;;;;;;;22.13;7.97;;;6.90;99.90;;;;;;5054391;28;20452;-55
2024/02/02 03:09:42;;;;;;;18.97;5.47;;;6.90;99.90;;;;;;5054415;28;20445;-54
2024/02/02 03:12:09;;;;;;;14.83;6.27;;;7.00;99.90;;;;;;5054289;28;20449;-55
2024/02/02 03:14:37;;;;;;;18.83;6.20;;;7.00;99.90;;;;;;5053858;28;21105;-55
2024/02/02 03:17:04;;;;;;;16.47;6.00;;;7.00;99.90;;;;;;5054148;28;20531;-54
2024/02/02 03:19:31;;;;;;;21.37;5.90;;;7.00;99.90;;;;;;5053859;28;20449;-54
2024/02/02 03:21:58;;;;;;;19.00;5.70;;;7.00;99.90;;;;;;5053718;28;20513;-54
2024/02/02 03:24:25;;;;;;;20.73;7.37;;;7.00;99.90;;;;;;5053992;28;20549;-55
2024/02/02 03:26:52;;;;;;;13.13;6.40;;;7.00;99.90;;;;;;5053720;28;20457;-55
2024/02/02 03:29:18;;;;;;;24.40;6.67;;;7.00;99.90;;;;;;5054046;28;20450;-55
2024/02/02 03:31:46;;;;;;;26.43;7.23;;;7.00;99.90;;;;;;5053925;28;20452;-55
2024/02/02 03:34:13;;;;;;;17.47;6.37;;;7.00;99.90;;;;;;5053747;28;20552;-55
2024/02/02 03:36:40;;;;;;;23.43;6.40;;;7.00;99.90;;;;;;5053611;28;20533;-55
2024/02/02 03:39:07;;;;;;;17.47;6.57;;;7.00;99.90;;;;;;5053827;28;20438;-55
2024/02/02 03:41:34;;;;;;;17.03;6.20;;;7.00;99.90;;;;;;5053737;28;20482;-54
2024/02/02 03:44:01;;;;;;;20.63;6.83;;;7.10;99.90;;;;;;5053399;28;20936;-55
2024/02/02 03:46:27;;;;;;;19.20;6.60;;;7.00;99.90;;;;;;5054016;28;20449;-55
2024/02/02 03:48:57;;;;;;;20.93;7.70;;;7.00;99.90;;;;;;5053651;28;20446;-55
2024/02/02 03:51:24;;;;;;;23.90;6.47;;;7.10;99.90;;;;;;5054003;28;20811;-56
2024/02/02 03:53:51;;;;;;;14.57;5.80;;;7.00;99.90;;;;;;5053422;28;20445;-56
2024/02/02 03:56:18;;;;;;;19.30;6.17;;;7.00;99.90;;;;;;5053794;28;20441;-55
2024/02/02 03:58:44;;;;;;;23.03;7.40;;;7.10;99.90;;;;;;5053725;28;20441;-55
2024/02/02 04:01:11;;;;;;;22.57;6.80;;;7.10;99.90;;;;;;5053551;28;20477;-55
2024/02/02 04:03:38;;;;;;;16.33;7.40;;;7.20;99.90;;;;;;5053520;28;20442;-55
2024/02/02 04:06:07;;;;;;;19.33;6.90;;;7.10;99.90;;;;;;5053158;28;20991;-55
2024/02/02 04:08:33;;;;;;;16.87;6.50;;;7.20;99.90;;;;;;5052683;28;20476;-55
2024/02/02 04:11:01;;;;;;;24.27;6.73;;;7.10;99.90;;;;;;5053180;28;20470;-55
2024/02/02 04:13:27;;;;;;;21.03;6.50;;;7.20;99.90;;;;;;5053434;28;20442;-55
2024/02/02 04:15:55;;;;;;;15.23;7.30;;;7.10;99.90;;;;;;5053359;28;20846;-55
2024/02/02 04:18:22;;;;;;;23.03;7.63;;;7.10;99.90;;;;;;5053600;28;20449;-55
2024/02/02 04:20:48;;;;;;;17.90;6.87;;;7.20;99.90;;;;;;5053267;28;20536;-55
2024/02/02 04:23:17;;;;;;;20.20;6.87;;;7.20;99.90;;;;;;5053197;28;20449;-55
2024/02/02 04:25:43;;;;;;;16.83;6.53;;;7.20;99.90;;;;;;5053172;28;20842;-55
2024/02/02 04:28:10;;;;;;;15.40;6.97;;;7.20;99.90;;;;;;5053348;28;20438;-55
2024/02/02 04:30:37;;;;;;;21.07;7.00;;;7.10;99.90;;;;;;5054017;28;20453;-55
2024/02/02 04:33:05;;;;;;;19.40;8.10;;;7.20;99.90;;;;;;5053129;28;20455;-55
2024/02/02 04:35:34;;;;;;;23.93;7.70;;;7.20;99.90;;;;;;5053206;28;20472;-55
2024/02/02 04:38:01;;;;;;;17.83;8.17;;;7.20;99.90;;;;;;5053228;28;20905;-55
2024/02/02 04:40:29;;;;;;;29.23;8.87;;;7.20;99.90;;;;;;5053092;28;20444;-55
2024/02/02 04:42:57;;;;;;;19.37;8.23;;;7.20;99.90;;;;;;5053046;28;20496;-54
2024/02/02 04:45:24;;;;;;;25.07;8.70;;;7.20;99.90;;;;;;5053134;28;20470;-55
2024/02/02 04:47:51;;;;;;;25.80;8.60;;;7.20;99.90;;;;;;5053657;28;20442;-55
2024/02/02 04:50:17;;;;;;;29.83;8.93;;;7.20;99.90;;;;;;5053014;28;20445;-55
2024/02/02 04:52:44;;;;;;;28.10;9.00;;;7.20;99.90;;;;;;5052486;28;20963;-55
2024/02/02 04:55:11;;;;;;;17.87;8.90;;;7.20;99.90;;;;;;5052929;28;20469;-55
2024/02/02 04:57:39;;;;;;;26.63;8.53;;;7.30;99.90;;;;;;5053066;28;20448;-55
2024/02/02 05:00:08;;;;;;;32.40;8.80;;;7.30;99.90;;;;;;5053069;28;20923;-55
2024/02/02 05:02:35;;;;;;;27.07;8.60;;;7.30;99.90;;;;;;5052943;28;20484;-55
2024/02/02 05:05:02;;;;;;;21.43;7.70;;;7.30;99.90;;;;;;5052889;28;20469;-55
2024/02/02 05:07:29;;;;;;;28.90;9.83;;;7.30;99.90;;;;;;5052694;28;20998;-55
2024/02/02 05:09:57;;;;;;;24.43;7.70;;;7.20;99.90;;;;;;5052940;28;20465;-55
2024/02/02 05:12:23;;;;;;;24.37;8.00;;;7.20;99.90;;;;;;5052458;28;20468;-55
2024/02/02 05:14:52;;;;;;;24.13;7.63;;;7.30;99.90;;;;;;5053077;28;20474;-55
2024/02/02 05:17:18;;;;;;;19.90;8.00;;;7.30;99.90;;;;;;5052598;28;20449;-55
2024/02/02 05:19:46;;;;;;;22.37;7.93;;;7.30;99.90;;;;;;5054962;28;20448;-55
2024/02/02 05:22:13;;;;;;;28.43;7.40;;;7.30;99.90;;;;;;5056536;28;20678;-55
2024/02/02 05:24:40;;;;;;;17.10;7.87;;;7.40;99.90;;;;;;5056405;28;20468;-55
2024/02/02 05:27:07;;;;;;;23.77;7.83;;;7.40;99.90;;;;;;5056605;28;20448;-55
2024/02/02 05:29:34;;;;;;;25.13;7.90;;;7.40;99.90;;;;;;5056049;28;20451;-55
2024/02/02 05:32:02;;;;;;;17.67;6.93;;;7.30;99.90;;;;;;5055933;28;20448;-55
2024/02/02 05:34:29;;;;;;;30.47;7.90;;;7.30;99.90;;;;;;5055994;28;20988;-55
2024/02/02 05:36:56;;;;;;;22.57;7.50;;;7.30;99.90;;;;;;5055915;28;20452;-55
2024/02/02 05:39:22;;;;;;;18.53;7.17;;;7.30;99.90;;;;;;5056117;28;20469;-55
2024/02/02 05:41:50;;;;;;;24.63;8.67;;;7.30;99.90;;;;;;5056253;28;20477;-55
2024/02/02 05:44:17;;;;;;;18.30;7.57;;;7.30;99.90;;;;;;5055613;28;21034;-55
2024/02/02 05:46:46;;;;;;;25.37;7.87;;;7.30;99.90;;;;;;5056142;28;20445;-55
2024/02/02 05:49:14;;;;;;;23.87;6.60;;;7.30;99.90;;;;;;5055996;28;20468;-55
2024/02/02 05:51:41;;;;;;;23.97;8.70;;;7.30;99.90;;;;;;5055892;28;20438;-56
2024/02/02 05:54:08;;;;;;;22.43;6.30;;;7.30;99.90;;;;;;5055588;28;20899;-54
2024/02/02 05:56:34;;;;;;;23.60;7.40;;;7.30;99.90;;;;;;5055761;28;20446;-55
2024/02/02 05:59:01;;;;;;;21.40;6.37;;;7.30;99.90;;;;;;5055513;28;20448;-55
2024/02/02 06:01:28;;;;;;;18.07;5.97;;;7.30;99.90;;;;;;5055737;28;20485;-55
2024/02/02 06:03:56;;;;;;;17.77;5.70;;;7.30;99.90;;;;;;5055683;28;20488;-55
2024/02/02 06:06:24;;;;;;;16.73;6.07;;;7.30;99.90;;;;;;5055577;28;20450;-55
2024/02/02 06:08:51;;;;;;;21.10;5.70;;;7.30;99.90;;;;;;5055606;28;20446;-55
2024/02/02 06:11:18;;;;;;;21.67;5.30;;;7.30;99.90;;;;;;5055493;28;20468;-55
2024/02/02 06:13:45;;;;;;;15.83;5.30;;;7.20;99.90;;;;;;5055419;28;20444;-55
2024/02/02 06:16:11;;;;;;;12.43;5.47;;;7.20;99.90;;;;;;5055027;28;20465;-55
2024/02/02 06:18:38;;;;;;;16.27;5.57;;;7.20;99.90;;;;;;5055373;28;20445;-55
2024/02/02 06:21:05;;;;;;;23.17;5.47;;;7.20;99.90;;;;;;5055446;28;20449;-55
2024/02/02 06:23:33;;;;;;;21.97;6.43;;;7.20;99.90;;;;;;5055449;28;20481;-55
2024/02/02 06:26:00;;;;;;;19.67;5.27;;;7.20;99.90;;;;;;5055248;28;20473;-55
2024/02/02 06:28:27;;;;;;;16.43;5.80;;;7.10;99.90;;;;;;5055183;28;20453;-55
2024/02/02 06:30:54;;;;;;;16.77;5.70;;;7.10;99.90;;;;;;5054291;28;20444;-55
2024/02/02 06:33:20;;;;;;;19.90;5.97;;;7.10;99.90;;;;;;5055156;28;20532;-55
2024/02/02 06:35:47;;;;;;;21.77;5.70;;;7.10;99.90;;;;;;5055082;28;20471;-55
2024/02/02 06:38:14;;;;;;;19.23;5.93;;;7.10;99.90;;;;;;5054671;28;20486;-55
2024/02/02 06:40:42;;;;;;;16.43;5.90;;;7.10;99.90;;;;;;5055042;28;20452;-54
2024/02/02 06:43:09;;;;;;;15.17;5.03;;;7.10;99.90;;;;;;5054874;28;20492;-55
2024/02/02 06:45:36;;;;;;;18.67;5.00;;;7.00;99.90;;;;;;5055014;28;20519;-55
2024/02/02 06:48:04;;;;;;;17.30;5.57;;;7.10;99.90;;;;;;5054993;28;20442;-54
2024/02/02 06:50:31;;;;;;;10.70;5.20;;;7.10;99.90;;;;;;5055092;28;20442;-55
2024/02/02 06:52:58;;;;;;;21.10;5.93;;;7.00;99.90;;;;;;5054425;28;20532;-55
2024/02/02 06:55:25;;;;;;;15.30;6.30;;;7.00;99.90;;;;;;5055128;28;20483;-54
2024/02/02 06:57:53;;;;;;;29.40;7.30;;;7.00;99.90;;;;;;5055021;28;20442;-55
2024/02/02 07:00:20;;;;;;;13.20;4.40;;;6.90;99.90;;;;;;5054882;28;20445;-55
2024/02/02 07:02:48;;;;;;;14.93;5.27;;;6.90;99.90;;;;;;5054233;28;20517;-54
2024/02/02 07:05:15;;;;;;;11.90;5.70;;;6.80;99.90;;;;;;5054611;28;20541;-55
2024/02/02 07:07:42;;;;;;;11.43;4.50;;;6.90;99.90;;;;;;5054645;28;20452;-55
2024/02/02 07:10:15;;;;;;;17.20;5.23;;;6.90;99.90;;;;;;5054485;28;20541;-55
2024/02/02 07:12:56;;;;;;;13.53;5.20;;;6.90;99.90;;;;;;5054539;28;20421;-54
2024/02/02 07:15:25;;;;;;;10.80;4.30;;;6.90;99.90;;;;;;5054152;28;21016;-55
2024/02/02 07:17:52;;;;;;;26.10;4.90;;;6.80;99.90;;;;;;5054404;28;20959;-55
2024/02/02 07:20:55;;;;;;;13.37;4.37;;;6.80;99.90;;;;;;5054521;28;20449;-55
2024/02/02 07:23:36;;;;;;;17.70;4.53;;;6.80;99.90;;;;;;5054388;28;20477;-55
2024/02/02 07:26:07;;;;;;;16.80;5.00;;;6.80;99.90;;;;;;5054720;28;20461;-56
2024/02/02 07:28:39;;;;;;;18.67;4.93;;;6.70;99.90;;;;;;5054517;28;20422;-56
2024/02/02 07:31:08;;;;;;;8.60;4.33;;;6.80;99.90;;;;;;5054665;28;20460;-55
2024/02/02 07:33:41;;;;;;;18.90;5.33;;;6.80;99.90;;;;;;5055253;28;20469;-55
2024/02/02 07:36:11;;;;;;;13.40;4.20;;;6.80;99.90;;;;;;5054249;28;20523;-56
2024/02/02 07:38:46;;;;;;;13.97;4.47;;;6.80;99.90;;;;;;5054904;28;20501;-56
2024/02/02 07:41:14;;;;;;;17.00;4.03;;;6.80;99.90;;;;;;5054521;28;20433;-56
2024/02/02 07:43:43;;;;;;;11.10;3.83;;;6.80;99.90;;;;;;5053974;28;20904;-56
2024/02/02 07:46:10;;;;;;;12.70;4.20;;;6.90;99.90;;;;;;5054274;28;20489;-56
2024/02/02 07:48:37;;;;;;;19.83;3.60;;;6.90;99.90;;;;;;5054874;28;20537;-56
2024/02/02 07:51:05;;;;;;;12.03;3.73;;;6.90;99.90;;;;;;5054594;28;20441;-56
2024/02/02 07:53:32;;;;;;;18.43;4.23;;;7.00;99.90;;;;;;5054914;28;20825;-56
2024/02/02 07:55:59;;;;;;;12.23;3.80;;;7.00;99.90;;;;;;5054942;28;20552;-56
2024/02/02 07:58:26;;;;;;;9.93;3.33;;;7.00;99.90;;;;;;5054796;28;20441;-56
2024/02/02 08:00:54;;;;;;;6.53;3.40;;;7.00;99.90;;;;;;5053918;28;20458;-56
2024/02/02 08:03:21;;;;;;;16.63;3.27;;;7.00;99.90;;;;;;5053512;28;20854;-56
2024/02/02 08:05:48;;;;;;;10.43;3.67;;;7.10;99.80;;;;;;5053523;28;20975;-56
2024/02/02 08:08:15;;;;;;;11.20;3.40;;;7.10;99.90;;;;;;5053597;28;20532;-56
2024/02/02 08:10:43;;;;;;;11.23;3.53;;;7.20;99.40;;;;;;5053589;28;20448;-56
2024/02/02 08:13:10;;;;;;;17.27;3.97;;;7.20;98.90;;;;;;5053400;28;20434;-56
2024/02/02 08:15:37;;;;;;;12.67;3.77;;;7.20;98.80;;;;;;5053380;28;20535;-56
2024/02/02 08:18:06;;;;;;;20.40;4.37;;;7.30;98.90;;;;;;5053589;28;20442;-56
2024/02/02 08:20:34;;;;;;;11.70;3.27;;;7.40;98.80;;;;;;5053486;28;20495;-56
2024/02/02 08:23:00;;;;;;;6.23;2.40;;;7.30;98.60;;;;;;5053306;28;20487;-55
2024/02/02 08:25:27;;;;;;;9.63;3.70;;;7.40;98.60;;;;;;5052859;28;20504;-56
2024/02/02 08:27:54;;;;;;;12.80;2.97;;;7.50;98.40;;;;;;5053227;28;20450;-55
2024/02/02 08:30:23;;;;;;;9.83;3.60;;;7.50;98.30;;;;;;5053093;28;20449;-56
2024/02/02 08:32:52;;;;;;;16.47;3.60;;;7.50;98.00;;;;;;5052796;28;20872;-56
2024/02/02 08:35:21;;;;;;;7.70;2.93;;;7.50;98.50;;;;;;5053123;28;20484;-56
2024/02/02 08:37:50;;;;;;;13.87;3.70;;;7.50;97.90;;;;;;5053328;28;20465;-56
2024/02/02 08:40:25;;;;;;;8.43;2.83;;;7.50;97.90;;;;;;5053058;28;20445;-56
2024/02/02 08:42:52;;;;;;;13.40;4.00;;;7.60;97.90;;;;;;5053083;28;20476;-56
2024/02/02 08:45:57;;;;;;;9.00;2.70;;;7.70;98.00;;;;;;5052951;28;20465;-56
2024/02/02 08:48:33;;;;;;;11.37;3.20;;;7.70;97.60;;;;;;5051029;28;20985;-56
2024/02/02 08:51:02;;;;;;;16.60;3.57;;;7.70;97.80;;;;;;5052674;28;20912;-56
2024/02/02 08:53:31;;;;;;;11.00;3.40;;;7.60;97.90;;;;;;5052698;28;20454;-56
2024/02/02 08:56:01;;;;;;;11.20;3.10;;;7.70;98.00;;;;;;5057066;28;20461;-56
2024/02/02 08:58:31;;;;;;;9.53;3.03;;;7.70;98.10;;;;;;5056773;28;20430;-56
2024/02/02 09:00:59;;;;;;;12.37;3.60;;;7.80;98.10;;;;;;5057057;28;20529;-56
2024/02/02 09:03:40;;;;;;;11.77;3.30;;;7.90;97.90;;;;;;5056929;28;20564;-56
2024/02/02 09:06:18;;;;;;;11.80;3.80;;;7.90;97.80;;;;;;5056889;28;20468;-56
2024/02/02 09:08:45;;;;;;;9.73;3.67;;;7.90;97.90;;;;;;5056978;28;20854;-56
2024/02/02 09:11:26;;;;;;;12.90;3.47;;;8.00;97.70;;;;;;5056375;28;20537;-56
2024/02/02 09:14:09;;;;;;;8.60;3.00;;;8.00;97.60;;;;;;5056438;28;20422;-56
2024/02/02 09:16:42;;;;;;;14.47;3.57;;;8.10;97.50;;;;;;5056574;28;20501;-56
2024/02/02 09:19:21;;;;;;;5.53;2.47;;;8.10;97.50;;;;;;5056694;28;20425;-56
2024/02/02 09:21:50;;;;;;;10.73;3.10;;;8.10;97.70;;;;;;5056556;28;20429;-56
2024/02/02 09:24:28;;;;;;;15.77;3.60;;;8.20;97.80;;;;;;5055854;28;20884;-56
2024/02/02 09:26:57;;;;;;;8.80;4.17;;;8.30;97.70;;;;;;5056199;28;20425;-55
2024/02/02 09:29:24;;;;;;;11.63;3.87;;;8.30;97.40;;;;;;5056013;28;20936;-56
2024/02/02 09:31:51;;;;;;;6.97;3.27;;;8.40;97.60;;;;;;5056197;28;20480;-57
2024/02/02 09:34:24;;;;;;;16.70;3.33;;;8.40;97.50;;;;;;5056218;28;20831;-56
2024/02/02 09:36:53;;;;;;;13.10;3.60;;;8.50;97.60;;;;;;5056176;28;20434;-56
2024/02/02 09:39:52;;;;;;;13.87;3.50;;;8.40;97.40;;;;;;5056091;28;20449;-55
2024/02/02 09:42:41;;;;;;;18.97;4.20;;;8.50;97.70;;;;;;5055903;28;20942;-56
2024/02/02 09:45:12;;;;;;;7.20;3.17;;;8.50;97.90;;;;;;5055954;28;20465;-56
2024/02/02 09:48:03;;;;;;;12.43;3.93;;;8.50;97.80;;;;;;5055986;28;20860;-56
2024/02/02 09:50:39;;;;;;;19.33;5.87;;;8.60;97.80;;;;;;5056138;28;20426;-55
2024/02/02 09:53:43;;;;;;;13.53;3.70;;;8.60;98.00;;;;;;5055720;28;20452;-55
2024/02/02 09:56:17;;;;;;;14.60;4.13;;;8.60;98.00;;;;;;5034061;28;20477;-56
2024/02/02 09:58:52;;;;;;;9.07;3.40;;;8.60;98.20;;;;;;5055861;28;20798;-56
2024/02/02 10:01:33;;;;;;;18.40;3.90;;;8.60;98.20;;;;;;5055842;28;20471;-55
2024/02/02 10:04:19;;;;;;;17.10;3.70;;;8.60;98.30;;;;;;5055720;28;20465;-56
2024/02/02 10:06:55;;;;;;;9.93;4.73;;;8.70;98.50;;;;;;5054846;28;20535;-56
2024/02/02 10:09:40;;;;;;;13.50;3.87;;;8.80;98.30;;;;;;5056311;28;20444;-56
2024/02/02 10:12:17;;;;;;;15.30;3.97;;;8.80;98.40;;;;;;5055796;28;20436;-56
2024/02/02 10:15:27;;;;;;;10.27;3.33;;;8.90;98.40;;;;;;5055611;28;20471;-56
2024/02/02 10:18:11;;;;;;;11.80;3.43;;;8.90;98.10;;;;;;5055539;28;20542;-56
2024/02/02 10:20:41;;;;;;;13.37;4.07;;;8.90;98.00;;;;;;5055519;28;20440;-56
2024/02/02 10:23:46;;;;;;;9.73;3.43;;;9.00;98.30;;;;;;5055347;28;20560;-56
2024/02/02 10:26:39;;;;;;;14.07;4.50;;;9.00;98.10;;;;;;5055378;28;20462;-55
2024/02/02 10:29:18;;;;;;;10.03;3.10;;;9.10;98.40;;;;;;5054995;28;21002;-55
2024/02/02 10:32:05;;;;;;;10.40;3.90;;;9.10;98.10;;;;;;5054919;28;20976;-55
2024/02/02 10:34:48;;;;;;;10.87;3.83;;;9.20;98.40;;;;;;5055117;28;20472;-56
2024/02/02 10:37:32;;;;;;;9.90;3.90;;;9.20;98.20;;;;;;5055117;28;20422;-56
2024/02/02 10:40:10;;;;;;;9.80;3.57;;;9.20;98.30;;;;;;5055746;28;20457;-55
2024/02/02 10:42:51;;;;;;;14.57;3.80;;;9.30;98.50;;;;;;5054620;28;20433;-55
2024/02/02 10:45:30;;;;;;;10.67;4.50;;;9.40;98.50;;;;;;5054856;28;20997;-55
2024/02/02 10:48:13;;;;;;;13.80;4.27;;;9.50;98.30;;;;;;5054503;28;20803;-55
2024/02/02 10:50:48;;;;;;;10.87;3.50;;;9.50;98.20;;;;;;5054481;28;20426;-55
2024/02/02 10:53:29;;;;;;;9.27;3.97;;;9.50;98.20;;;;;;5054307;28;20966;-56
2024/02/02 10:56:07;;;;;;;10.23;3.90;;;9.50;98.30;;;;;;5054655;28;20461;-56
2024/02/02 10:58:47;;;;;;;10.20;3.80;;;9.60;99.00;;;;;;5054556;28;20428;-56
2024/02/02 11:01:35;;;;;;;9.60;3.20;;;9.60;99.10;;;;;;5054849;28;20430;-55
2024/02/02 11:04:09;;;;;;;12.03;4.20;;;9.70;99.20;;;;;;5054418;28;20461;-56
2024/02/02 11:06:45;;;;;;;10.73;3.97;;;9.80;98.90;;;;;;5054411;28;20434;-55
2024/02/02 11:09:19;;;;;;;15.53;3.80;;;9.90;98.50;;;;;;5054456;28;20425;-55
2024/02/02 11:11:50;;;;;;;14.00;4.17;;;10.00;98.10;;;;;;5054310;28;20425;-56
2024/02/02 11:14:26;;;;;;;13.43;4.80;;;10.00;97.80;;;;;;5054090;28;20457;-56
2024/02/02 11:17:00;;;;;;;13.90;4.40;;;10.00;97.80;;;;;;5053904;28;20429;-55
2024/02/02 11:19:47;;;;;;;15.50;4.27;;;10.10;98.10;;;;;;5054306;28;20442;-55
2024/02/02 11:22:25;;;;;;;13.00;4.23;;;10.20;97.80;;;;;;5054243;28;20426;-56
2024/02/02 11:25:02;;;;;;;10.70;4.57;;;10.30;97.60;;;;;;5054016;28;20562;-56
2024/02/02 11:27:39;;;;;;;8.23;4.50;;;10.40;97.70;;;;;;5053964;28;20953;-55
2024/02/02 11:30:10;;;;;;;9.93;4.53;;;10.50;97.70;;;;;;5054131;28;20447;-56
2024/02/02 11:33:06;;;;;;;12.97;5.23;;;10.70;97.40;;;;;;5054060;28;20436;-56
2024/02/02 11:35:43;;;;;;;8.33;4.30;;;10.90;97.00;;;;;;5053850;28;20461;-56
2024/02/02 11:38:17;;;;;;;10.67;4.17;;;11.10;96.80;;;;;;5053741;28;20429;-56
2024/02/02 11:40:44;;;;;;;11.73;4.87;;;11.30;96.40;;;;;;5053905;28;20426;-55
2024/02/02 11:43:12;;;;;;;10.80;4.70;;;11.40;96.50;;;;;;5053623;28;20930;-56
2024/02/02 11:45:43;;;;;;;11.27;5.07;;;11.30;96.00;;;;;;5053433;28;20470;-56
2024/02/02 11:48:16;;;;;;;12.07;5.30;;;11.40;96.30;;;;;;5053668;28;20904;-56
2024/02/02 11:50:45;;;;;;;8.63;4.10;;;11.50;96.40;;;;;;5053492;28;20920;-56
2024/02/02 11:53:26;;;;;;;11.33;5.00;;;11.40;96.40;;;;;;5053316;28;20544;-57
2024/02/02 11:55:56;;;;;;;10.87;4.90;;;11.40;96.50;;;;;;5053549;28;20544;-56
2024/02/02 11:58:25;;;;;;;10.23;4.97;;;11.40;96.60;;;;;;5053899;28;20433;-56
2024/02/02 12:01:23;;;;;;;12.20;5.00;;;11.40;96.40;;;;;;5053832;28;20449;-56
2024/02/02 12:04:05;;;;;;;9.07;4.70;;;11.30;96.40;;;;;;5053667;28;20511;-56
2024/02/02 12:06:43;;;;;;;15.27;4.77;;;11.40;96.70;;;;;;5053418;28;20520;-56
2024/02/02 12:09:15;;;;;;;13.30;5.10;;;11.50;97.00;;;;;;5053763;28;20434;-56
2024/02/02 12:11:47;;;;;;;12.63;6.17;;;11.70;96.90;;;;;;5053592;28;20434;-56
2024/02/02 12:14:22;;;;;;;14.23;5.57;;;11.80;96.40;;;;;;5053653;28;20435;-55
2024/02/02 12:16:51;;;;;;;12.13;5.37;;;11.80;96.30;;;;;;5053435;28;20519;-56
2024/02/02 12:19:18;;;;;;;11.50;5.20;;;11.90;96.10;;;;;;5053349;28;20449;-56
2024/02/02 12:21:45;;;;;;;14.17;5.97;;;12.00;96.40;;;;;;5053308;28;20452;-56
2024/02/02 12:24:13;;;;;;;12.93;5.10;;;11.90;96.10;;;;;;5052915;28;20465;-56
2024/02/02 12:26:41;;;;;;;13.63;5.00;;;11.80;96.40;;;;;;5053465;28;20537;-56
2024/02/02 12:29:08;;;;;;;12.37;5.80;;;11.90;96.40;;;;;;5052274;28;20469;-56
2024/02/02 12:31:35;;;;;;;12.53;5.20;;;11.80;96.00;;;;;;5053341;28;20447;-56
2024/02/02 12:34:03;;;;;;;12.73;6.00;;;11.80;96.10;;;;;;5052688;28;20809;-56
2024/02/02 12:36:30;;;;;;;10.70;5.13;;;11.80;96.50;;;;;;5052816;28;20908;-56
2024/02/02 12:38:58;;;;;;;16.90;6.10;;;11.90;96.40;;;;;;5052770;28;20818;-55
2024/02/02 12:41:25;;;;;;;14.33;5.10;;;11.70;96.60;;;;;;5053092;28;20450;-55
2024/02/02 12:43:52;;;;;;;8.80;5.27;;;11.50;97.20;;;;;;5053056;28;20492;-56
2024/02/02 12:46:20;;;;;;;12.17;5.43;;;11.50;97.80;;;;;;5053090;28;20505;-56
2024/02/02 12:48:46;;;;;;;10.53;5.03;;;11.40;98.00;;;;;;5053551;28;20445;-56
2024/02/02 12:51:15;;;;;;;13.40;5.33;;;11.40;98.40;;;;;;5053150;28;20440;-56
2024/02/02 12:53:41;;;;;;;14.63;5.83;;;11.40;98.50;;;;;;5053107;28;20683;-56
2024/02/02 12:56:08;;;;;;;10.50;5.90;;;11.40;98.60;;;;;;5053919;28;20519;-56
2024/02/02 12:58:35;;;;;;;9.90;6.17;;;11.40;99.00;;;;;;5052931;28;20515;-56
2024/02/02 13:01:05;;;;;;;11.37;5.77;;;11.30;98.90;;;;;;5052750;28;20441;-56